Flight Track Log - Related Links

Times and Time Zones

All times are in EDT time to prevent confusion due to time zone crossing. See the DAL1941 flight status page for this flight to view local times or setup timezone preferences in your user account.

Time Position Orientation Groundspeed Altitude Reporting Facility
EDT Latitude Longitude Course Direction KTS MPH feet Rate Location/Type
Tue 07:22:49 AM 42.9500 -71.4500 200° South 169 194 1,300  Level KA90
Tue 07:25:00 AM 43.0779 -71.0051 71° East  Level FlightAware Approximate
Tue 07:25:07 AM 43.0650 -71.4511 360° North 225 259 5,400  Level Boston Center
Tue 07:26:00 AM 43.0070 -70.8904 144° Southeast  Level FlightAware Approximate
Tue 07:26:07 AM 43.1333 -71.3789 38° Northeast 252 290 8,100  Level Boston Center
Tue 07:27:00 AM 42.8999 -70.9131 202° Southwest  Level FlightAware Approximate
Tue 07:27:07 AM 43.1344 -71.2764 89° East 239 275 10,400  Level Boston Center
Tue 07:28:00 AM 42.7877 -70.9646 200° South  Level FlightAware Approximate
Tue 07:28:19 AM 43.0789 -71.1525 122° Southeast 324 373 11,500  Level Boston Center
Tue 07:29:19 AM 43.0686 -70.9906 95° East 356 410 13,000 1,950 Climbing Boston Center
Tue 07:30:19 AM 42.9922 -70.8986 139° Southeast 380 437 15,400 2,200 Climbing Boston Center
Tue 07:31:19 AM 42.8697 -70.9386 193° South 372 428 17,400 1,950 Climbing Boston Center
Tue 07:32:19 AM 42.7558 -70.9950 200° South 420 483 19,300 1,700 Climbing Boston Center
Tue 07:33:19 AM 42.6378 -71.0544 200° South 433 498 20,800 1,350 Climbing Boston Center
Tue 07:34:19 AM 42.5219 -71.1244 204° Southwest 451 519 22,000 1,250 Climbing Boston Center
Tue 07:35:19 AM 42.4675 -71.2778 244° Southwest 424 488 23,300 1,500 Climbing Boston Center
Tue 07:36:19 AM 42.4356 -71.4469 256° West 441 507 25,000 1,450 Climbing Boston Center
Tue 07:37:19 AM 42.3994 -71.5911 251° West 447 514 26,200 1,300 Climbing Boston Center
Tue 07:38:19 AM 42.3442 -71.7464 244° Southwest 453 521 27,600 1,250 Climbing Boston Center
Tue 07:39:19 AM 42.2803 -71.8986 240° Southwest 465 535 28,700 1,100 Climbing Boston Center
Tue 07:40:19 AM 42.2142 -72.0506 240° Southwest 470 541 29,800 1,100 Climbing Boston Center
Tue 07:41:19 AM 42.1500 -72.2022 240° Southwest 470 541 30,900 1,100 Climbing Boston Center
Tue 07:42:19 AM 42.0794 -72.3617 239° Southwest 464 534 32,000 550 Climbing Boston Center
Tue 07:43:19 AM 42.0086 -72.5044 236° Southwest 464 534 32,000  Level Boston Center
Tue 07:44:19 AM 41.9481 -72.6131 233° Southwest 464 534 32,000  Level Boston Center
Tue 07:45:19 AM 41.8600 -72.7717 233° Southwest 458 527 32,000  Level Boston Center
Tue 07:46:19 AM 41.7783 -72.9161 233° Southwest 465 535 32,000  Level Boston Center
Tue 07:47:19 AM 41.7028 -73.0492 233° Southwest 470 541 32,000  Level Boston Center
Tue 07:48:19 AM 41.6269 -73.1844 233° Southwest 465 535 32,000  Level Boston Center
Tue 07:50:28 AM 41.4747 -73.4542 233° Southwest 438 504 32,000  Level New York Center
Tue 07:51:29 AM 41.3989 -73.5867 233° Southwest 454 522 32,000  Level New York Center
Tue 07:52:30 AM 41.3206 -73.7214 232° Southwest 459 528 32,000  Level New York Center
Tue 07:53:29 AM 41.2442 -73.8533 232° Southwest 459 528 32,000  Level New York Center
Tue 07:54:28 AM 41.1658 -73.9875 232° Southwest 459 528 32,000  Level New York Center
Tue 07:55:28 AM 41.0892 -74.1186 232° Southwest 459 528 32,000  Level New York Center
Tue 07:56:29 AM 41.0014 -74.2683 232° Southwest 464 534 32,000  Level New York Center
Tue 07:57:29 AM 40.9225 -74.4014 232° Southwest 470 541 32,000  Level New York Center
Tue 07:58:27 AM 40.8433 -74.5372 232° Southwest 470 541 32,000  Level New York Center
Tue 07:59:27 AM 40.7639 -74.6697 232° Southwest 470 541 32,000  Level New York Center
Tue 08:00:28 AM 40.6911 -74.7889 231° Southwest 470 541 32,000  Level New York Center
Tue 08:01:28 AM 40.6050 -74.9314 232° Southwest 470 541 32,000  Level New York Center
Tue 08:02:27 AM 40.5319 -75.0497 231° Southwest 470 541 32,000  Level New York Center
Tue 08:03:28 AM 40.4542 -75.1814 232° Southwest 470 541 32,000  Level New York Center
Tue 08:04:29 AM 40.3653 -75.3256 231° Southwest 470 541 32,000  Level New York Center
Tue 08:05:29 AM 40.2831 -75.4561 230° Southwest 470 541 32,000  Level New York Center
Tue 08:06:29 AM 40.2069 -75.5897 233° Southwest 470 541 32,000  Level New York Center
Tue 08:07:28 AM 40.1453 -75.7158 237° Southwest 464 534 32,000  Level New York Center
Tue 08:08:28 AM 40.0681 -75.8675 236° Southwest 457 526 32,000  Level New York Center
Tue 08:09:29 AM 39.9997 -75.9981 236° Southwest 457 526 32,000  Level New York Center
Tue 08:11:35 AM 39.8367 -76.2778 233° Southwest 458 527 32,000  Level Washington Center
Tue 08:12:36 AM 39.7525 -76.4039 229° Southwest 458 527 32,000  Level Washington Center
Tue 08:13:34 AM 39.6894 -76.5056 231° Southwest 465 535 32,000  Level Washington Center
Tue 08:14:35 AM 39.5944 -76.6417 228° Southwest 470 541 32,000  Level Washington Center
Tue 08:15:36 AM 39.5122 -76.7644 229° Southwest 470 541 32,000  Level Washington Center
Tue 08:16:36 AM 39.4275 -76.8919 229° Southwest 470 541 32,000  Level Washington Center
Tue 08:17:34 AM 39.3447 -77.0167 229° Southwest 470 541 32,000  Level Washington Center
Tue 08:18:34 AM 39.2619 -77.1411 229° Southwest 470 541 32,000  Level Washington Center
Tue 08:19:35 AM 39.1789 -77.2650 229° Southwest 465 535 32,000  Level Washington Center
Tue 08:20:36 AM 39.0958 -77.3861 229° Southwest 465 535 32,000  Level Washington Center
Tue 08:21:36 AM 39.0128 -77.5097 229° Southwest 465 535 32,000  Level Washington Center
Tue 08:22:34 AM 38.9272 -77.6328 228° Southwest 465 535 32,000  Level Washington Center
Tue 08:23:34 AM 38.8353 -77.7689 229° Southwest 471 542 32,000  Level Washington Center
Tue 08:24:34 AM 38.7475 -77.8994 229° Southwest 479 551 32,000  Level Washington Center
Tue 08:25:35 AM 38.6658 -78.0167 228° Southwest 468 539 32,000  Level Washington Center
Tue 08:26:36 AM 38.5842 -78.1386 229° Southwest 458 527 32,000  Level Washington Center
Tue 08:27:34 AM 38.5003 -78.2606 229° Southwest 458 527 32,000  Level Washington Center
Tue 08:28:36 AM 38.4161 -78.3819 229° Southwest 453 521 32,000  Level Washington Center
Tue 08:29:36 AM 38.3319 -78.5006 228° Southwest 453 521 32,000  Level Washington Center
Tue 08:30:34 AM 38.2517 -78.6219 230° Southwest 448 516 32,000  Level Washington Center
Tue 08:31:34 AM 38.1761 -78.7297 228° Southwest 448 516 32,000  Level Washington Center
Tue 08:32:35 AM 38.0894 -78.8475 227° Southwest 453 521 32,000  Level Washington Center
Tue 08:33:36 AM 38.0069 -78.9678 229° Southwest 453 521 32,000  Level Washington Center
Tue 08:34:34 AM 37.9200 -79.0850 227° Southwest 453 521 32,000  Level Washington Center
Tue 08:35:35 AM 37.8267 -79.2147 228° Southwest 453 521 32,000  Level Washington Center
Tue 08:36:36 AM 37.7436 -79.3317 228° Southwest 453 521 32,000  Level Washington Center
Tue 08:37:36 AM 37.6567 -79.4478 227° Southwest 453 521 32,000  Level Washington Center
Tue 08:38:34 AM 37.5781 -79.5539 227° Southwest 458 527 32,000 454 Level Washington Center
Tue 08:39:35 AM 37.4839 -79.6853 228° Southwest 458 527 32,900 744 Climbing Washington Center
Tue 08:40:35 AM 37.3942 -79.8058 227° Southwest 469 540 33,500 545 Climbing Washington Center
Tue 08:41:36 AM 37.3086 -79.9211 227° Southwest 469 540 34,000 160 Climbing Washington Center
Tue 08:43:42 AM 37.1294 -80.1653 227° Southwest 460 529 34,000  Level Atlanta Center
Tue 08:44:42 AM 37.0453 -80.2786 227° Southwest 455 524 34,000  Level Atlanta Center
Tue 08:45:42 AM 36.9692 -80.3808 227° Southwest 455 524 34,000  Level Atlanta Center
Tue 08:46:42 AM 36.8850 -80.4939 227° Southwest 455 524 34,000  Level Atlanta Center
Tue 08:47:42 AM 36.8006 -80.6064 227° Southwest 455 524 34,000  Level Atlanta Center
Tue 08:48:42 AM 36.7122 -80.7267 228° Southwest 439 505 34,000  Level Atlanta Center
Tue 08:49:42 AM 36.6275 -80.8389 227° Southwest 439 505 34,000  Level Atlanta Center
Tue 08:50:42 AM 36.5431 -80.9533 227° Southwest 434 499 34,000  Level Atlanta Center
Tue 08:51:42 AM 36.4581 -81.0625 226° Southwest 439 505 34,000  Level Atlanta Center
Tue 08:52:42 AM 36.3753 -81.1739 227° Southwest 433 498 34,000  Level Atlanta Center
Tue 08:53:42 AM 36.2903 -81.2850 227° Southwest 433 498 34,000  Level Atlanta Center
Tue 08:54:42 AM 36.2069 -81.3933 226° Southwest 433 498 34,000  Level Atlanta Center
Tue 08:55:42 AM 36.1197 -81.5069 226° Southwest 439 505 34,000  Level Atlanta Center
Tue 08:56:42 AM 36.0364 -81.6172 227° Southwest 439 505 34,000  Level Atlanta Center
Tue 08:57:42 AM 35.9489 -81.7278 226° Southwest 450 518 34,000  Level Atlanta Center
Tue 08:58:42 AM 35.8653 -81.8375 227° Southwest 450 518 34,000  Level Atlanta Center
Tue 08:59:42 AM 35.7878 -81.9344 225° Southwest 444 511 34,000  Level Atlanta Center
Tue 09:00:42 AM 35.7042 -82.0414 226° Southwest 436 502 34,000  Level Atlanta Center
Tue 09:01:42 AM 35.6119 -82.1458 223° Southwest 447 514 34,000  Level Atlanta Center
Tue 09:02:42 AM 35.5217 -82.2475 223° Southwest 447 514 34,000 -600 Level Atlanta Center
Tue 09:03:42 AM 35.4292 -82.3514 222° Southwest 447 514 32,800 -1,150 Descending Atlanta Center
Tue 09:04:42 AM 35.3386 -82.4525 222° Southwest 447 514 31,700 -950 Descending Atlanta Center
Tue 09:05:42 AM 35.2461 -82.5586 223° Southwest 453 521 30,900 -800 Descending Atlanta Center
Tue 09:06:42 AM 35.1556 -82.6569 222° Southwest 448 516 30,100 -900 Descending Atlanta Center
Tue 09:07:42 AM 35.0669 -82.7597 224° Southwest 448 516 29,100 -1,050 Descending Atlanta Center
Tue 09:08:42 AM 34.9617 -82.8756 222° Southwest 460 529 28,000 -1,100 Descending Atlanta Center
Tue 09:09:42 AM 34.8625 -82.9781 220° Southwest 466 536 26,900 -950 Descending Atlanta Center
Tue 09:10:42 AM 34.7714 -83.0856 224° Southwest 461 531 26,100 -750 Descending Atlanta Center
Tue 09:11:42 AM 34.6783 -83.1900 223° Southwest 462 532 25,400 -950 Descending Atlanta Center
Tue 09:12:42 AM 34.5808 -83.2944 221° Southwest 462 532 24,200 -1,800 Descending Atlanta Center
Tue 09:13:42 AM 34.4917 -83.3986 224° Southwest 462 532 21,800 -2,400 Descending Atlanta Center
Tue 09:14:42 AM 34.4108 -83.4847 221° Southwest 451 519 19,400 -2,350 Descending Atlanta Center
Tue 09:15:42 AM 34.3278 -83.5836 225° Southwest 430 495 17,100 -2,400 Descending Atlanta Center
Tue 09:16:42 AM 34.2467 -83.6694 221° Southwest 410 472 14,600 -2,050 Descending Atlanta Center
Tue 09:17:42 AM 34.1675 -83.7550 222° Southwest 389 448 13,000 -800 Descending Atlanta Center
Tue 09:18:42 AM 34.0864 -83.8406 221° Southwest 389 448 13,000 -750 Level Atlanta Center
Tue 09:19:18 AM 34.0333 -83.9000 223° Southwest 377 434 11,800 -1,938 Descending Atlanta TRACON
Tue 09:20:18 AM 33.9500 -83.9833 220° Southwest 359 413 9,900 -947 Descending Atlanta TRACON
Tue 09:21:12 AM 33.8667 -83.9833 180° South 316 364 10,000 -71 Climbing Atlanta TRACON
Tue 09:21:42 AM 33.8339 -83.9964 198° South 324 373 9,800 -1,133 Descending Atlanta Center
Tue 09:22:42 AM 33.7547 -84.0089 187° South 299 344 8,300 -1,400 Descending Atlanta Center
Tue 09:23:42 AM 33.6814 -84.0189 186° South 282 325 7,000 -1,300 Descending Atlanta Center
Tue 09:24:42 AM 33.6397 -84.0886 234° Southwest 250 288 5,700 -1,100 Descending Atlanta Center
Tue 09:25:42 AM 33.6314 -84.1711 263° West 241 277 4,800 -900 Descending Atlanta Center

Login

Don't have an account? Register now (free) for customized features, flight alerts, and more!